createdAt,value
2024-01-20T00:02:36.080Z,952.7
2024-01-20T00:07:42.484Z,952.7
2024-01-20T00:12:48.903Z,952.7
2024-01-20T00:17:55.540Z,952.7
2024-01-20T00:23:01.993Z,952.8
2024-01-20T00:28:08.152Z,952.7
2024-01-20T00:33:14.623Z,952.7
2024-01-20T00:38:21.164Z,952.8
2024-01-20T00:43:27.709Z,952.8
2024-01-20T00:48:34.147Z,952.8
2024-01-20T00:53:40.526Z,952.9
2024-01-20T00:58:46.973Z,953
2024-01-20T01:03:53.357Z,953
2024-01-20T01:08:59.803Z,952.9
2024-01-20T01:14:06.181Z,953
2024-01-20T01:19:12.569Z,953
2024-01-20T01:24:18.702Z,953
2024-01-20T01:29:25.237Z,953
2024-01-20T01:34:30.892Z,953
2024-01-20T01:39:36.830Z,953
2024-01-20T01:44:41.966Z,953.1
2024-01-20T01:49:48.553Z,953.1
2024-01-20T01:54:55.064Z,953.1
2024-01-20T02:00:01.350Z,953.2
2024-01-20T02:05:07.717Z,953.2
2024-01-20T02:10:14.262Z,953.1
2024-01-20T02:15:20.615Z,953.1
2024-01-20T02:20:26.794Z,953.1
2024-01-20T02:25:33.564Z,953.2
2024-01-20T02:30:39.657Z,953.2
2024-01-20T02:35:46.260Z,953.3
2024-01-20T02:40:52.622Z,953.3
2024-01-20T02:45:59.110Z,953.3
2024-01-20T02:51:05.410Z,953.3
2024-01-20T02:56:12.003Z,953.4
2024-01-20T03:01:18.108Z,953.4
2024-01-20T03:06:24.507Z,953.4
2024-01-20T03:11:31.298Z,953.4
2024-01-20T03:16:37.717Z,953.5
2024-01-20T03:21:44.071Z,953.4
2024-01-20T03:26:50.625Z,953.4
2024-01-20T03:31:56.746Z,953.4
2024-01-20T03:37:03.299Z,953.5
2024-01-20T03:42:09.793Z,953.5
2024-01-20T03:47:15.845Z,953.5
2024-01-20T03:52:22.714Z,953.6
2024-01-20T03:57:27.990Z,953.7
2024-01-20T04:02:34.663Z,953.7
2024-01-20T04:07:40.088Z,953.7
2024-01-20T04:12:46.640Z,953.7
2024-01-20T04:17:53.003Z,953.8
2024-01-20T04:22:59.421Z,953.9
2024-01-20T04:28:05.582Z,954
2024-01-20T04:33:12.375Z,954
2024-01-20T04:38:18.668Z,953.9
2024-01-20T04:43:25.083Z,954
2024-01-20T04:48:31.561Z,954
2024-01-20T04:53:38.057Z,953.9
2024-01-20T04:58:44.342Z,954.1
2024-01-20T05:03:50.799Z,954.1
2024-01-20T05:08:57.222Z,954.2
2024-01-20T05:14:03.299Z,954.1
2024-01-20T05:19:09.889Z,954.1
2024-01-20T05:24:16.481Z,954.1
2024-01-20T05:29:22.556Z,954.1
2024-01-20T05:34:29.218Z,954.3
2024-01-20T05:39:35.635Z,954.3
2024-01-20T05:44:42.025Z,954.3
2024-01-20T05:49:48.383Z,954.3
2024-01-20T05:54:54.787Z,954.4
2024-01-20T06:00:01.388Z,954.4
2024-01-20T06:05:07.452Z,954.5
2024-01-20T06:10:14.168Z,954.6
2024-01-20T06:15:20.841Z,954.6
2024-01-20T06:20:25.995Z,954.7
2024-01-20T06:25:32.538Z,954.8
2024-01-20T06:30:38.204Z,954.8
2024-01-20T06:35:44.628Z,954.8
2024-01-20T06:40:50.735Z,954.8
2024-01-20T06:45:57.328Z,954.9
2024-01-20T06:51:03.691Z,954.9
2024-01-20T06:56:09.830Z,954.9
2024-01-20T07:01:16.270Z,954.8
2024-01-20T07:06:22.675Z,955
2024-01-20T07:11:28.916Z,955.2
2024-01-20T07:16:35.255Z,955.1
2024-01-20T07:21:41.503Z,955.2
2024-01-20T07:26:47.817Z,955.3
2024-01-20T07:31:54.054Z,955.3
2024-01-20T07:37:00.167Z,955.3
2024-01-20T07:42:06.706Z,955.4
2024-01-20T07:47:13.075Z,955.5
2024-01-20T07:52:19.380Z,955.5
2024-01-20T07:57:25.397Z,955.6
2024-01-20T08:02:32.104Z,955.7
2024-01-20T08:07:38.318Z,955.7
2024-01-20T08:12:44.622Z,955.7
2024-01-20T08:17:50.953Z,955.7
2024-01-20T08:22:57.057Z,955.7
2024-01-20T08:28:03.560Z,955.8
2024-01-20T08:33:09.651Z,955.8
2024-01-20T08:38:16.031Z,955.7
2024-01-20T08:43:22.540Z,955.8
2024-01-20T08:48:28.733Z,955.8
2024-01-20T08:53:35.189Z,955.9
2024-01-20T08:58:41.388Z,956
2024-01-20T09:03:47.793Z,956
2024-01-20T09:08:53.762Z,956
2024-01-20T09:14:00.069Z,956
2024-01-20T09:19:06.366Z,956.1
2024-01-20T09:24:12.817Z,956.1
2024-01-20T09:29:19.188Z,956.2
2024-01-20T09:34:25.396Z,956.3
2024-01-20T09:39:31.774Z,956.4
2024-01-20T09:44:38.017Z,956.4
2024-01-20T09:49:43.594Z,956.4
2024-01-20T09:54:49.932Z,956.4
2024-01-20T09:59:56.331Z,956.5
2024-01-20T10:05:02.632Z,956.4
2024-01-20T10:10:08.635Z,956.4
2024-01-20T10:15:14.948Z,956.5
2024-01-20T10:20:21.584Z,956.5
2024-01-20T10:25:27.786Z,956.5
2024-01-20T10:30:34.036Z,956.4
2024-01-20T10:35:40.642Z,956.5
2024-01-20T10:40:46.762Z,956.4
2024-01-20T10:45:52.806Z,956.4
2024-01-20T10:50:59.183Z,956.5
2024-01-20T10:56:05.642Z,956.5
2024-01-20T11:01:11.727Z,956.4
2024-01-20T11:06:18.204Z,956.4
2024-01-20T11:11:24.347Z,956.4
2024-01-20T11:16:31.006Z,956.5
2024-01-20T11:21:37.082Z,956.4
2024-01-20T11:26:43.562Z,956.4
2024-01-20T11:31:49.738Z,956.4
2024-01-20T11:36:56.106Z,956.5
2024-01-20T11:42:02.203Z,956.4
2024-01-20T11:47:08.638Z,956.4
2024-01-20T11:52:14.952Z,956.4
2024-01-20T11:57:21.332Z,956.4
2024-01-20T12:02:26.918Z,956.4
2024-01-20T12:07:32.368Z,956.4
2024-01-20T12:12:38.506Z,956.5
2024-01-20T12:17:44.924Z,956.5
2024-01-20T12:22:51.121Z,956.5
2024-01-20T12:27:57.458Z,956.5
2024-01-20T12:33:03.788Z,956.5
2024-01-20T12:38:10.225Z,956.5
2024-01-20T12:43:16.559Z,956.5
2024-01-20T12:48:22.933Z,956.4
2024-01-20T12:53:29.129Z,956.5
2024-01-20T12:58:35.359Z,956.5
2024-01-20T13:03:41.659Z,956.5
2024-01-20T13:08:47.871Z,956.4
2024-01-20T13:13:54.465Z,956.4
2024-01-20T13:19:00.705Z,956.4
2024-01-20T13:24:07.028Z,956.4
2024-01-20T13:29:13.308Z,956.4
2024-01-20T13:34:19.598Z,956.4
2024-01-20T13:39:25.706Z,956.4
2024-01-20T13:44:32.275Z,956.4
2024-01-20T13:49:38.407Z,956.5
2024-01-20T13:54:44.976Z,956.6
2024-01-20T13:59:50.933Z,956.7
2024-01-20T14:04:57.236Z,956.7
2024-01-20T14:10:03.650Z,956.7
2024-01-20T14:15:10.027Z,956.7
2024-01-20T14:20:15.737Z,956.7
2024-01-20T14:25:20.938Z,956.8
2024-01-20T14:30:27.310Z,956.8
2024-01-20T14:35:33.729Z,956.9
2024-01-20T14:40:39.982Z,957
2024-01-20T14:45:46.337Z,957
2024-01-20T14:50:52.461Z,957
2024-01-20T14:55:58.998Z,957
2024-01-20T15:01:05.095Z,957.1
2024-01-20T15:06:11.479Z,957.1
2024-01-20T15:11:17.916Z,957.1
2024-01-20T15:16:24.232Z,957.2
2024-01-20T15:21:30.319Z,957.2
2024-01-20T15:26:36.922Z,957.3
2024-01-20T15:31:43.044Z,957.2
2024-01-20T15:36:49.225Z,957.3
2024-01-20T15:41:55.665Z,957.3
2024-01-20T15:47:01.920Z,957.3
2024-01-20T15:52:08.161Z,957.4
2024-01-20T15:57:14.529Z,957.5
2024-01-20T16:02:20.926Z,957.4
2024-01-20T16:07:27.053Z,957.4
2024-01-20T16:12:33.435Z,957.5
2024-01-20T16:17:39.669Z,957.6
2024-01-20T16:22:46.178Z,957.5
2024-01-20T16:27:52.442Z,957.5
2024-01-20T16:32:58.987Z,957.5
2024-01-20T16:38:04.462Z,957.4
2024-01-20T16:43:10.883Z,957.5
2024-01-20T16:48:17.300Z,957.6
2024-01-20T16:53:23.705Z,957.6
2024-01-20T16:58:30.137Z,957.6
2024-01-20T17:03:36.547Z,957.7
2024-01-20T17:08:42.964Z,957.7
2024-01-20T17:13:49.378Z,957.7
2024-01-20T17:18:55.846Z,957.7
2024-01-20T17:24:02.432Z,957.7
2024-01-20T17:29:08.621Z,957.7
2024-01-20T17:34:15.040Z,957.7
2024-01-20T17:39:21.482Z,957.7
2024-01-20T17:44:27.850Z,957.8
2024-01-20T17:49:34.409Z,957.8
2024-01-20T17:54:40.677Z,957.9
2024-01-20T17:59:47.100Z,957.9
2024-01-20T18:04:53.545Z,957.9
2024-01-20T18:10:00.100Z,957.9
2024-01-20T18:15:06.341Z,957.9
2024-01-20T18:20:12.746Z,957.9
2024-01-20T18:25:19.168Z,957.9
2024-01-20T18:30:25.579Z,957.7
2024-01-20T18:35:31.984Z,957.7
2024-01-20T18:40:38.400Z,957.8
2024-01-20T18:45:44.941Z,957.8
2024-01-20T18:50:50.588Z,957.9
2024-01-20T18:55:56.997Z,957.9
2024-01-20T19:01:03.471Z,957.9
2024-01-20T19:06:09.957Z,957.9
2024-01-20T19:11:15.409Z,958
2024-01-20T19:16:21.876Z,958
2024-01-20T19:21:28.269Z,958
2024-01-20T19:26:34.649Z,958.1
2024-01-20T19:31:41.072Z,958.1
2024-01-20T19:36:47.522Z,958.1
2024-01-20T19:41:54.054Z,958.1
2024-01-20T19:47:00.626Z,958.1
2024-01-20T19:52:07.050Z,958.1
2024-01-20T19:57:13.155Z,958.1
2024-01-20T20:02:19.564Z,958.1
2024-01-20T20:07:26.125Z,958.1
2024-01-20T20:12:32.684Z,958
2024-01-20T20:17:39.064Z,958
2024-01-20T20:22:45.524Z,957.9
2024-01-20T20:27:51.630Z,957.9
2024-01-20T20:32:58.045Z,957.9
2024-01-20T20:38:04.456Z,957.9
2024-01-20T20:43:10.877Z,957.9
2024-01-20T20:48:17.514Z,957.9
2024-01-20T20:53:23.703Z,957.9
2024-01-20T20:58:30.349Z,957.9
2024-01-20T21:03:36.663Z,957.8
2024-01-20T21:08:43.262Z,957.8
2024-01-20T21:13:49.682Z,957.8
2024-01-20T21:18:56.237Z,957.8
2024-01-20T21:24:01.618Z,957.8
2024-01-20T21:29:07.856Z,957.8
2024-01-20T21:34:14.531Z,957.9
2024-01-20T21:39:20.769Z,957.8
2024-01-20T21:44:27.430Z,957.8
2024-01-20T21:49:33.492Z,957.9
2024-01-20T21:54:40.172Z,957.8
2024-01-20T21:59:46.627Z,957.7
2024-01-20T22:04:52.976Z,957.7
2024-01-20T22:09:59.296Z,957.7
2024-01-20T22:15:05.791Z,957.7
2024-01-20T22:20:12.087Z,957.7
2024-01-20T22:25:18.647Z,957.6
2024-01-20T22:30:24.772Z,957.6
2024-01-20T22:35:31.169Z,957.6
2024-01-20T22:40:37.830Z,957.6
2024-01-20T22:45:44.117Z,957.6
2024-01-20T22:50:50.715Z,957.6
2024-01-20T22:55:56.824Z,957.6
2024-01-20T23:01:03.531Z,957.6
2024-01-20T23:06:09.653Z,957.6
2024-01-20T23:11:16.391Z,957.6
2024-01-20T23:16:22.644Z,957.5
2024-01-20T23:21:29.164Z,957.5
2024-01-20T23:26:35.591Z,957.4
2024-01-20T23:31:42.200Z,957.4
2024-01-20T23:36:47.820Z,957.3
2024-01-20T23:41:53.071Z,957.2
2024-01-20T23:46:59.330Z,957.2
2024-01-20T23:52:06.139Z,957.1
2024-01-20T23:57:12.217Z,957.1
